Time;durP1;ratioP1;P1;durP2;ratioP2;P2;SDS_P1;SDS_P2;PMS_P1;PMS_P2;Temp;Humidity;BMP_temperature;BMP_pressure;BME280_temperature;BME280_humidity;BME280_pressure;Samples;Min_cycle;Max_cycle;Signal;HPM_P1;HPM_P2
2023/03/19 16:48:46;;;;;;;3.25;2.95;;;;;;;;;;5122693;27;20455;-37
2023/03/19 16:51:16;;;;;;;3.38;3.08;;;;;;;;;;5068171;28;20051;-36
2023/03/19 16:53:46;;;;;;;4.38;4.07;;;11.90;99.90;;;;;;5057916;28;20049;-36
2023/03/19 16:56:14;;;;;;;3.88;3.58;;;11.80;99.90;;;;;;5061682;28;20053;-36
2023/03/19 16:58:44;;;;;;;3.10;2.78;;;11.50;99.90;;;;;;5060189;28;20344;-37
2023/03/19 17:01:16;;;;;;;24.67;3.90;;;11.30;99.90;;;;;;5062566;28;20406;-37
2023/03/19 17:03:45;;;;;;;3.22;2.53;;;11.20;99.90;;;;;;5059208;28;20044;-37
2023/03/19 17:06:14;;;;;;;5.68;4.88;;;11.10;99.90;;;;;;5058651;28;20500;-37
2023/03/19 17:08:42;;;;;;;5.43;2.35;;;11.00;99.90;;;;;;5042192;28;20446;-37
2023/03/19 17:11:33;;;;;;;2.97;2.78;;;10.90;99.90;;;;;;5045355;28;20057;-37
2023/03/19 17:14:02;;;;;;;2.25;2.15;;;10.80;99.90;;;;;;5033398;28;20427;-37
2023/03/19 17:16:29;;;;;;;2.78;1.98;;;10.70;99.90;;;;;;5040541;28;20046;-38
2023/03/19 17:18:57;;;;;;;5.30;2.58;;;10.50;99.90;;;;;;5041038;28;20041;-37
2023/03/19 17:21:29;;;;;;;2.42;2.22;;;10.40;99.90;;;;;;5038269;28;20049;-37
2023/03/19 17:23:58;;;;;;;4.80;2.35;;;10.30;99.90;;;;;;5038370;28;20049;-37
2023/03/19 17:26:27;;;;;;;3.63;3.30;;;10.20;99.90;;;;;;5030645;28;20506;-38
2023/03/19 17:28:55;;;;;;;2.70;2.50;;;10.10;99.90;;;;;;5034800;28;20049;-39
2023/03/19 17:31:28;;;;;;;4.03;3.28;;;10.10;99.90;;;;;;5057121;28;20044;-37
2023/03/19 17:34:02;;;;;;;2.17;2.00;;;10.00;99.90;;;;;;5055196;28;20052;-37
2023/03/19 17:36:30;;;;;;;2.15;2.05;;;9.90;99.90;;;;;;5041305;28;20053;-37
2023/03/19 17:38:57;;;;;;;4.03;2.67;;;9.90;99.90;;;;;;5043336;28;20049;-37
2023/03/19 17:41:25;;;;;;;1.88;1.77;;;9.90;99.90;;;;;;5040011;28;20465;-37
2023/03/19 17:43:52;;;;;;;3.25;2.83;;;9.70;99.90;;;;;;5034487;28;20055;-37
2023/03/19 17:46:23;;;;;;;2.00;1.88;;;9.50;99.90;;;;;;5046726;28;20564;-37
2023/03/19 17:48:51;;;;;;;2.10;1.90;;;9.40;99.90;;;;;;5057112;28;20623;-37
2023/03/19 17:51:22;;;;;;;2.67;2.47;;;9.30;99.90;;;;;;5055417;28;20599;-37
2023/03/19 17:53:52;;;;;;;3.00;2.67;;;9.30;99.90;;;;;;5053667;28;20513;-38
2023/03/19 17:56:23;;;;;;;2.00;1.85;;;9.20;99.90;;;;;;5054358;28;20073;-37
2023/03/19 17:58:52;;;;;;;2.53;2.33;;;9.10;99.90;;;;;;5049131;28;20064;-38
2023/03/19 18:01:26;;;;;;;2.60;2.40;;;9.10;99.90;;;;;;5042164;28;20059;-37
2023/03/19 18:03:56;;;;;;;2.40;2.20;;;9.10;99.90;;;;;;5020158;28;20057;-38
2023/03/19 18:06:27;;;;;;;2.05;1.95;;;9.00;99.90;;;;;;5023162;28;20631;-37
2023/03/19 18:08:55;;;;;;;2.17;1.98;;;8.90;99.90;;;;;;5025894;28;20057;-37
2023/03/19 18:11:22;;;;;;;2.88;2.67;;;8.70;99.90;;;;;;5022744;28;20041;-36
2023/03/19 18:13:51;;;;;;;2.25;1.90;;;8.70;99.90;;;;;;5023524;28;20041;-37
2023/03/19 18:16:28;;;;;;;2.47;2.17;;;8.60;99.90;;;;;;5025179;28;20049;-37
2023/03/19 18:18:59;;;;;;;3.10;2.55;;;8.50;99.90;;;;;;5021429;28;20224;-36
2023/03/19 18:21:28;;;;;;;;;;;8.40;99.90;;;;;;5025915;28;20454;-37
2023/03/19 18:23:56;;;;;;;7.28;2.55;;;8.30;99.90;;;;;;5039283;28;20671;-37
2023/03/19 18:26:24;;;;;;;3.83;2.42;;;8.30;99.90;;;;;;5042178;28;20048;-37
2023/03/19 18:28:52;;;;;;;1.80;1.70;;;8.30;99.90;;;;;;5043663;28;20612;-37
2023/03/19 18:31:23;;;;;;;2.10;2.00;;;8.30;99.90;;;;;;5044638;28;20045;-36
2023/03/19 18:33:59;;;;;;;3.00;2.70;;;8.30;99.90;;;;;;5044293;28;20523;-38
2023/03/19 18:36:30;;;;;;;2.10;1.92;;;8.20;99.90;;;;;;5042170;28;20057;-37
2023/03/19 18:38:58;;;;;;;3.83;3.60;;;8.10;99.90;;;;;;5044439;28;20056;-37
2023/03/19 18:41:27;;;;;;;2.63;2.42;;;8.00;99.90;;;;;;5044245;28;20057;-37
2023/03/19 18:44:05;;;;;;;3.55;3.15;;;7.90;99.90;;;;;;5041763;28;20056;-37
2023/03/19 18:46:35;;;;;;;2.33;2.08;;;7.80;99.90;;;;;;5043589;28;20599;-37
2023/03/19 18:49:24;;;;;;;3.03;2.55;;;7.90;99.90;;;;;;5042825;28;20049;-37
2023/03/19 18:51:53;;;;;;;3.03;2.83;;;8.00;99.90;;;;;;5022998;28;20432;-37
2023/03/19 18:54:30;;;;;;;6.78;4.80;;;7.90;99.90;;;;;;5031752;28;20059;-36
2023/03/19 18:56:59;;;;;;;4.82;4.43;;;7.60;99.90;;;;;;5042881;28;20056;-37
2023/03/19 18:59:29;;;;;;;13.85;3.38;;;7.30;99.90;;;;;;5027373;28;20060;-37
2023/03/19 19:02:18;;;;;;;5.25;3.33;;;7.30;99.90;;;;;;5026061;28;20054;-37
2023/03/19 19:04:45;;;;;;;5.32;3.63;;;7.30;99.90;;;;;;5022621;28;20499;-37
2023/03/19 19:07:15;;;;;;;3.47;2.97;;;7.30;99.90;;;;;;5023156;28;20042;-37
2023/03/19 19:09:43;;;;;;;7.53;3.58;;;7.30;99.90;;;;;;5027118;28;20045;-37
2023/03/19 19:12:13;;;;;;;3.20;2.90;;;7.30;99.90;;;;;;5042243;28;20423;-37
2023/03/19 19:14:43;;;;;;;5.40;3.22;;;7.30;99.90;;;;;;5030315;28;20045;-37
2023/03/19 19:17:16;;;;;;;5.90;3.78;;;7.30;99.90;;;;;;5020334;28;20053;-37
2023/03/19 19:19:43;;;;;;;4.07;3.72;;;7.30;99.90;;;;;;5019834;28;20053;-36
2023/03/19 19:22:15;;;;;;;4.38;3.53;;;7.20;99.90;;;;;;5031703;28;20049;-38
2023/03/19 19:24:43;;;;;;;3.30;3.00;;;7.10;99.90;;;;;;5042384;28;20768;-36
2023/03/19 19:27:18;;;;;;;2.58;2.47;;;7.10;99.90;;;;;;5040854;28;20045;-37
2023/03/19 19:29:45;;;;;;;11.57;3.72;;;7.00;99.90;;;;;;5034821;28;20049;-37
2023/03/19 19:32:28;;;;;;;7.75;4.18;;;7.00;99.90;;;;;;5022036;28;20057;-36
2023/03/19 19:34:55;;;;;;;3.03;2.72;;;7.00;99.90;;;;;;5021884;28;20838;-36
2023/03/19 19:37:23;;;;;;;2.92;2.72;;;7.00;99.90;;;;;;5020832;28;20057;-36
2023/03/19 19:39:51;;;;;;;3.70;3.38;;;7.00;99.90;;;;;;5023154;28;20517;-37
2023/03/19 19:42:20;;;;;;;4.53;4.07;;;7.00;99.90;;;;;;5032408;28;20308;-36
2023/03/19 19:44:54;;;;;;;5.93;3.70;;;7.10;99.90;;;;;;5039339;28;20053;-37
2023/03/19 19:47:21;;;;;;;5.50;3.53;;;7.00;99.90;;;;;;5026109;28;20071;-37
2023/03/19 19:49:49;;;;;;;5.22;3.58;;;7.00;99.90;;;;;;5025423;28;20550;-37
2023/03/19 19:52:18;;;;;;;3.05;2.72;;;7.00;99.90;;;;;;5021103;28;20060;-37
2023/03/19 19:54:46;;;;;;;4.30;3.03;;;6.90;99.90;;;;;;5024892;28;20538;-37
2023/03/19 19:57:25;;;;;;;7.57;4.20;;;6.70;99.90;;;;;;5030838;28;20071;-37
2023/03/19 19:59:54;;;;;;;4.57;4.18;;;6.60;99.90;;;;;;5017829;28;20064;-36
2023/03/19 20:02:30;;;;;;;10.88;7.82;;;6.70;99.90;;;;;;5025606;28;20076;-36
2023/03/19 20:04:58;;;;;;;7.40;4.80;;;6.70;99.90;;;;;;5010962;28;20459;-36
2023/03/19 20:07:26;;;;;;;8.50;3.58;;;6.70;99.90;;;;;;5036870;28;20049;-36
2023/03/19 20:09:53;;;;;;;5.10;3.58;;;6.80;99.90;;;;;;5037464;28;20583;-35
2023/03/19 20:12:22;;;;;;;5.35;4.85;;;6.90;99.90;;;;;;5036094;28;20449;-36
2023/03/19 20:14:51;;;;;;;5.70;4.88;;;6.90;99.90;;;;;;5033425;28;20052;-37
2023/03/19 20:17:21;;;;;;;9.45;6.25;;;6.90;99.90;;;;;;5033575;28;20061;-37
2023/03/19 20:19:50;;;;;;;4.60;4.20;;;6.90;99.90;;;;;;5037968;28;20061;-37
2023/03/19 20:22:18;;;;;;;5.15;3.90;;;6.90;99.90;;;;;;5035316;28;20049;-36
2023/03/19 20:24:45;;;;;;;4.32;3.80;;;6.80;99.90;;;;;;5033785;28;20630;-37
2023/03/19 20:27:21;;;;;;;5.40;4.57;;;6.70;99.90;;;;;;5033957;28;20045;-37
2023/03/19 20:29:49;;;;;;;4.28;3.85;;;6.70;99.90;;;;;;5035233;28;20053;-35
2023/03/19 20:32:32;;;;;;;5.65;5.15;;;6.50;99.90;;;;;;5042533;28;20611;-35
2023/03/19 20:35:00;;;;;;;6.25;3.72;;;6.30;99.90;;;;;;5041414;28;20057;-37
2023/03/19 20:37:28;;;;;;;3.85;3.58;;;6.20;99.90;;;;;;5040250;28;20057;-37
2023/03/19 20:39:56;;;;;;;4.10;3.85;;;6.30;99.90;;;;;;5041285;28;20568;-37
2023/03/19 20:42:25;;;;;;;8.50;5.15;;;6.40;99.90;;;;;;5040648;28;20053;-37
2023/03/19 20:44:56;;;;;;;4.35;3.65;;;6.50;99.90;;;;;;5042456;28;20611;-37
2023/03/19 20:47:24;;;;;;;6.80;4.20;;;6.60;99.90;;;;;;5041069;28;20429;-37
2023/03/19 20:49:52;;;;;;;9.80;4.88;;;6.70;99.90;;;;;;5037459;28;20536;-36
2023/03/19 20:52:20;;;;;;;5.03;3.67;;;6.80;99.90;;;;;;5035006;28;20510;-37
2023/03/19 20:54:48;;;;;;;4.03;3.63;;;6.90;99.90;;;;;;5034478;28;20045;-36
2023/03/19 20:57:21;;;;;;;4.10;3.65;;;7.00;99.90;;;;;;5038579;28;20049;-37
2023/03/19 20:59:49;;;;;;;9.05;4.10;;;7.10;99.90;;;;;;5041843;28;20072;-37
2023/03/19 21:02:20;;;;;;;4.47;4.03;;;7.10;99.90;;;;;;5040090;28;20044;-37
2023/03/19 21:04:48;;;;;;;6.15;4.72;;;7.20;99.90;;;;;;5041976;28;20436;-37
2023/03/19 21:07:25;;;;;;;7.05;5.75;;;7.30;99.90;;;;;;5037551;28;20455;-37
2023/03/19 21:09:52;;;;;;;6.38;5.18;;;7.20;99.90;;;;;;5039869;28;20060;-36
2023/03/19 21:12:31;;;;;;;5.05;4.40;;;7.20;99.90;;;;;;5038044;28;20048;-36
2023/03/19 21:15:00;;;;;;;5.95;4.55;;;7.70;99.90;;;;;;5040045;28;20053;-36
2023/03/19 21:17:27;;;;;;;7.97;6.53;;;8.00;99.90;;;;;;5038043;28;20060;-37
2023/03/19 21:19:55;;;;;;;4.53;4.13;;;8.00;99.90;;;;;;5041538;28;20295;-37
2023/03/19 21:22:27;;;;;;;7.55;4.32;;;8.30;99.90;;;;;;5040279;28;20044;-36
2023/03/19 21:25:12;;;;;;;5.18;4.72;;;8.30;99.90;;;;;;5041943;28;20395;-37
2023/03/19 21:27:45;;;;;;;7.88;4.65;;;8.30;99.90;;;;;;5015979;28;20045;-36
2023/03/19 21:30:17;;;;;;;13.02;4.07;;;8.40;99.90;;;;;;5023717;28;20064;-37
2023/03/19 21:32:45;;;;;;;8.68;6.82;;;8.70;99.90;;;;;;5024522;28;20552;-37
2023/03/19 21:35:20;;;;;;;7.03;5.78;;;8.80;99.90;;;;;;5032645;28;20057;-36
2023/03/19 21:37:48;;;;;;;6.72;5.70;;;8.90;99.90;;;;;;5036830;28;20383;-37
2023/03/19 21:40:28;;;;;;;7.43;5.70;;;8.80;99.90;;;;;;5029161;28;20481;-37
2023/03/19 21:43:01;;;;;;;6.65;5.95;;;8.90;99.90;;;;;;5042333;28;20470;-37
2023/03/19 21:45:32;;;;;;;7.10;6.40;;;8.80;99.90;;;;;;5028552;28;20699;-37
2023/03/19 21:48:27;;;;;;;6.22;5.72;;;8.80;99.90;;;;;;5026678;28;20060;-36
2023/03/19 21:50:56;;;;;;;7.50;6.10;;;8.70;99.90;;;;;;5040813;28;20483;-37
2023/03/19 21:53:24;;;;;;;7.28;6.65;;;8.60;99.90;;;;;;5049636;28;20052;-37
2023/03/19 21:55:55;;;;;;;6.75;5.20;;;8.30;99.90;;;;;;5051138;28;20405;-37
2023/03/19 21:58:34;;;;;;;6.30;5.80;;;8.20;99.90;;;;;;5042338;28;20052;-36
2023/03/19 22:01:03;;;;;;;8.30;4.95;;;8.20;99.90;;;;;;5039847;28;20060;-37
2023/03/19 22:03:31;;;;;;;9.60;4.95;;;8.30;99.90;;;;;;5028110;28;20506;-36
2023/03/19 22:05:58;;;;;;;7.18;6.05;;;8.40;99.90;;;;;;5030176;28;20053;-37
2023/03/19 22:08:26;;;;;;;6.93;6.22;;;8.40;99.90;;;;;;5044117;28;20072;-37
2023/03/19 22:10:56;;;;;;;8.43;7.10;;;8.50;99.90;;;;;;5030326;28;20064;-36
2023/03/19 22:13:27;;;;;;;7.90;5.57;;;8.60;99.90;;;;;;5024802;28;20057;-36
2023/03/19 22:15:56;;;;;;;;;;;8.60;99.90;;;;;;5041028;28;20045;-37
2023/03/19 22:18:24;;;;;;;7.75;5.18;;;8.50;99.90;;;;;;5044696;28;19951;-37
2023/03/19 22:20:52;;;;;;;7.20;5.82;;;8.40;99.90;;;;;;5044288;28;20059;-37
2023/03/19 22:23:19;;;;;;;12.30;7.57;;;8.40;99.90;;;;;;5024875;28;20056;-36
2023/03/19 22:25:50;;;;;;;5.80;5.25;;;8.40;99.90;;;;;;5023997;28;20422;-37
2023/03/19 22:28:30;;;;;;;6.55;5.32;;;8.40;99.90;;;;;;5019892;28;20080;-37
2023/03/19 22:30:59;;;;;;;7.38;5.30;;;8.40;99.90;;;;;;5025491;28;20050;-37
2023/03/19 22:33:27;;;;;;;5.93;5.43;;;8.50;99.90;;;;;;5027315;28;20069;-37
2023/03/19 22:35:58;;;;;;;7.45;6.05;;;8.50;99.90;;;;;;5044260;28;20056;-36
2023/03/19 22:38:25;;;;;;;;;;;8.50;99.90;;;;;;5027189;28;20049;-36
2023/03/19 22:40:54;;;;;;;6.60;6.00;;;8.50;99.90;;;;;;5024884;28;20237;-37
2023/03/19 22:43:27;;;;;;;8.68;6.38;;;8.40;99.90;;;;;;5018083;28;20053;-36
2023/03/19 22:46:08;;;;;;;8.23;5.10;;;8.40;99.90;;;;;;5019302;28;20049;-37
2023/03/19 22:48:37;;;;;;;4.93;4.45;;;8.40;99.90;;;;;;5040273;28;20056;-36
2023/03/19 22:51:05;;;;;;;7.03;4.97;;;8.30;99.90;;;;;;5043997;28;20049;-36
2023/03/19 22:53:35;;;;;;;6.35;5.75;;;8.30;99.90;;;;;;5044656;28;20076;-36
2023/03/19 22:56:03;;;;;;;5.82;4.95;;;8.20;99.90;;;;;;5043488;28;20056;-37
2023/03/19 22:58:31;;;;;;;7.45;5.90;;;8.20;99.90;;;;;;5027338;28;20053;-36
2023/03/19 23:00:59;;;;;;;8.38;7.18;;;8.20;99.90;;;;;;5021144;28;20068;-36
2023/03/19 23:03:29;;;;;;;7.65;5.60;;;8.20;99.90;;;;;;5043604;28;20060;-36
2023/03/19 23:05:59;;;;;;;6.70;5.28;;;8.20;99.90;;;;;;5042522;28;20072;-38
2023/03/19 23:08:27;;;;;;;6.82;5.97;;;8.20;99.90;;;;;;5044612;28;20053;-37
2023/03/19 23:10:55;;;;;;;6.35;5.78;;;8.20;99.90;;;;;;5044475;28;20053;-37
2023/03/19 23:13:22;;;;;;;7.40;6.68;;;8.10;99.90;;;;;;5043789;28;20048;-37
2023/03/19 23:15:55;;;;;;;7.80;4.90;;;8.20;99.90;;;;;;5039807;28;20056;-37
2023/03/19 23:18:41;;;;;;;7.38;6.70;;;8.10;99.90;;;;;;5043021;28;20036;-37
2023/03/19 23:21:14;;;;;;;11.65;6.00;;;8.10;99.90;;;;;;5045061;28;20049;-36
2023/03/19 23:23:42;;;;;;;5.78;5.28;;;8.10;99.90;;;;;;5040287;28;20052;-36
2023/03/19 23:26:36;;;;;;;5.53;4.53;;;8.10;99.90;;;;;;5044903;28;20041;-37
2023/03/19 23:29:06;;;;;;;6.82;5.50;;;8.10;99.90;;;;;;5040873;28;20053;-37
2023/03/19 23:31:33;;;;;;;7.85;5.25;;;8.20;99.90;;;;;;5042662;28;20061;-36
2023/03/19 23:34:01;;;;;;;10.05;6.35;;;8.20;99.90;;;;;;5044584;28;20048;-36
2023/03/19 23:36:28;;;;;;;6.55;5.68;;;8.20;99.90;;;;;;5043008;28;20587;-37
2023/03/19 23:38:56;;;;;;;5.75;4.85;;;8.20;99.90;;;;;;5042523;28;20053;-37
2023/03/19 23:41:25;;;;;;;4.00;3.70;;;8.20;99.90;;;;;;5042680;28;20506;-38
2023/03/19 23:43:53;;;;;;;6.45;5.22;;;8.20;99.90;;;;;;5042370;28;20049;-37
2023/03/19 23:46:21;;;;;;;8.73;6.45;;;8.20;99.90;;;;;;5043354;28;20447;-36
2023/03/19 23:48:49;;;;;;;5.30;4.82;;;8.20;99.90;;;;;;5045352;28;20364;-37
2023/03/19 23:51:18;;;;;;;6.15;4.45;;;8.20;99.90;;;;;;5042493;28;20041;-37
2023/03/19 23:53:45;;;;;;;3.90;3.58;;;8.20;99.90;;;;;;5042531;28;20041;-36
2023/03/19 23:56:21;;;;;;;5.28;4.20;;;8.20;99.90;;;;;;5043630;28;20521;-35
2023/03/19 23:58:51;;;;;;;7.00;4.32;;;8.10;99.90;;;;;;5041805;28;20052;-37
